Weather History for Wrangell, AK

Change the Weather History Date:

Thursday, October 20, 2011

  Actual Average Record
Temperature  
Mean Temperature 44 °F -  
Max Temperature 48 °F 47 °F 59 °F (2002)
Min Temperature 41 °F 38 °F 26 °F (1961)
Degree Days  
Heating Degree Days 20    
Moisture  
Dew Point 37 °F    
Average Humidity 78    
Maximum Humidity 87    
Minimum Humidity 66    
Precipitation  
Precipitation 0.00 in - - ()
Sea Level Pressure  
Sea Level Pressure 30.03 in    
Wind  
Wind Speed 8 mph (ESE)    
Max Wind Speed 14 mph    
Max Gust Speed 17 mph    
Visibility 10 miles    
Events      
Averages and records for this station are not official NWS values.
T = Trace of Precipitation, MM = Missing Value Source: NWS Daily Summary

Daily Weather History Graph

Daily Weather History Graph

Search for Another Location

Airport:

Trip Planner

Search our weather history database for the weather conditions in past years. The results will help you decide how hot, cold, wet, or windy it might be!

Date:

Astronomy

Oct. 20, 2011 Rise Set
Actual Time 7:32 AM AKDT 5:35 PM AKDT
Civil Twilight 6:53 AM AKDT 6:14 PM AKDT
Nautical Twilight 6:09 AM AKDT 6:57 PM AKDT
Astronomical Twilight 5:26 AM AKDT 7:41 PM AKDT
Moon No Moon Rise 2:58 PM AKDT (10/20)
Length of Visible Light 11h 20m
Length of Day
10h 03m
Last Quarter, 43% of the Moon is Illuminated
Oct 20
Last Quarter
Oct 26
New
Nov 2
First Quarter
Nov 10
Full
Nov 18
Last Quarter

Hourly Weather History & Observations

Time (AKDT) Temp. Windchill Dew Point Humidity Pressure Visibility Wind Dir Wind Speed Gust Speed Precip Events Conditions
12:16 AM 42.8 °F 38.6 °F 37.4 °F 81% 30.02 in 10.0 mi ESE 6.9 mph - N/A   Scattered Clouds
12:36 AM 41.0 °F 37.1 °F 35.6 °F 81% 30.03 in 10.0 mi SE 5.8 mph - N/A   Mostly Cloudy
12:56 AM 42.8 °F 39.3 °F 37.4 °F 81% 30.03 in 10.0 mi SE 5.8 mph - N/A   Overcast
1:16 AM 41.0 °F 39.0 °F 37.4 °F 87% 30.04 in 10.0 mi SSE 3.5 mph - N/A   Overcast
1:36 AM 42.8 °F 37.5 °F 37.4 °F 81% 30.03 in 10.0 mi East 9.2 mph - N/A   Mostly Cloudy
1:56 AM 42.8 °F 37.0 °F 37.4 °F 81% 30.03 in 10.0 mi ESE 10.4 mph - N/A   Overcast
2:16 AM 41.0 °F 36.4 °F 37.4 °F 87% 30.04 in 10.0 mi SE 6.9 mph - N/A   Overcast
2:36 AM 42.8 °F 39.3 °F 37.4 °F 81% 30.05 in 10.0 mi ESE 5.8 mph - N/A   Overcast
2:56 AM 42.8 °F 39.3 °F 37.4 °F 81% 30.04 in 10.0 mi ESE 5.8 mph - N/A   Mostly Cloudy
3:16 AM 41.0 °F 38.0 °F 37.4 °F 87% 30.05 in 10.0 mi SE 4.6 mph - N/A   Mostly Cloudy
3:36 AM 41.0 °F 35.8 °F 37.4 °F 87% 30.04 in 10.0 mi East 8.1 mph - N/A   Mostly Cloudy
3:56 AM 42.8 °F 37.5 °F 37.4 °F 81% 30.04 in 10.0 mi ESE 9.2 mph - N/A   Overcast
4:16 AM 42.8 °F 36.6 °F 37.4 °F 81% 30.03 in 10.0 mi East 11.5 mph - N/A   Overcast
4:36 AM 42.8 °F 39.3 °F 37.4 °F 81% 30.04 in 10.0 mi SE 5.8 mph - N/A   Overcast
4:56 AM 42.8 °F 38.0 °F 37.4 °F 81% 30.04 in 10.0 mi ESE 8.1 mph - N/A   Overcast
5:16 AM 42.8 °F 38.6 °F 37.4 °F 81% 30.04 in 10.0 mi South 6.9 mph - N/A   Overcast
5:36 AM 42.8 °F 39.3 °F 37.4 °F 81% 30.04 in 8.0 mi ENE 5.8 mph - N/A   Overcast
5:56 AM 42.8 °F 37.5 °F 37.4 °F 81% 30.04 in 10.0 mi East 9.2 mph - N/A   Overcast
6:16 AM 42.8 °F 37.5 °F 37.4 °F 81% 30.04 in 10.0 mi East 9.2 mph - N/A   Overcast
6:36 AM 42.8 °F 37.5 °F 37.4 °F 81% 30.04 in 10.0 mi ESE 9.2 mph - N/A   Overcast
6:56 AM 42.8 °F 38.6 °F 37.4 °F 81% 30.04 in 10.0 mi ESE 6.9 mph - N/A   Mostly Cloudy
7:16 AM 41.0 °F 37.1 °F 37.4 °F 87% 30.04 in 10.0 mi SSE 5.8 mph - N/A   Mostly Cloudy
7:36 AM 42.8 °F 38.6 °F 37.4 °F 81% 30.04 in 10.0 mi SE 6.9 mph - N/A   Mostly Cloudy
7:56 AM 42.8 °F 36.6 °F 37.4 °F 81% 30.04 in 10.0 mi East 11.5 mph - N/A   Mostly Cloudy
8:16 AM 42.8 °F 36.6 °F 37.4 °F 81% 30.04 in 10.0 mi East 11.5 mph - N/A   Mostly Cloudy
8:36 AM 42.8 °F 37.0 °F 37.4 °F 81% 30.05 in 10.0 mi ESE 10.4 mph - N/A   Mostly Cloudy
8:56 AM 42.8 °F 37.5 °F 37.4 °F 81% 30.05 in 10.0 mi East 9.2 mph - N/A   Overcast
9:16 AM 42.8 °F 36.2 °F 37.4 °F 81% 30.04 in 10.0 mi East 12.7 mph - N/A   Overcast
9:36 AM 42.8 °F 37.5 °F 37.4 °F 81% 30.05 in 10.0 mi SE 9.2 mph - N/A   Overcast
9:56 AM 42.8 °F 37.5 °F 37.4 °F 81% 30.05 in 10.0 mi ESE 9.2 mph - N/A   Mostly Cloudy
10:16 AM 44.6 °F 38.4 °F 37.4 °F 76% 30.05 in 10.0 mi East 12.7 mph - N/A   Mostly Cloudy
10:36 AM 44.6 °F 38.8 °F 37.4 °F 76% 30.05 in 10.0 mi East 11.5 mph - N/A   Mostly Cloudy
10:56 AM 44.6 °F 40.2 °F 37.4 °F 76% 30.05 in 10.0 mi East 8.1 mph - N/A   Mostly Cloudy
11:16 AM 44.6 °F 39.2 °F 37.4 °F 76% 30.05 in 10.0 mi East 10.4 mph - N/A   Mostly Cloudy
11:36 AM 44.6 °F 38.8 °F 37.4 °F 76% 30.05 in 10.0 mi East 11.5 mph - N/A   Mostly Cloudy
11:56 AM 44.6 °F 38.4 °F 39.2 °F 81% 30.05 in 10.0 mi East 12.7 mph - N/A   Mostly Cloudy
12:16 PM 46.4 °F 44.3 °F 37.4 °F 71% 30.05 in 10.0 mi SSE 4.6 mph - N/A   Mostly Cloudy
12:36 PM 46.4 °F 41.5 °F 37.4 °F 71% 30.05 in 10.0 mi ESE 10.4 mph - N/A   Mostly Cloudy
12:56 PM 46.4 °F 41.9 °F 37.4 °F 71% 30.04 in 10.0 mi ESE 9.2 mph 17.3 mph N/A   Mostly Cloudy
1:16 PM 46.4 °F 41.9 °F 39.2 °F 76% 30.05 in 10.0 mi SE 9.2 mph - N/A   Mostly Cloudy
1:36 PM 46.4 °F 41.5 °F 35.6 °F 66% 30.05 in 10.0 mi SE 10.4 mph - N/A   Mostly Cloudy
1:56 PM 48.2 °F - 37.4 °F 66% 30.04 in 10.0 mi SE 9.2 mph - N/A   Overcast
2:16 PM 46.4 °F 42.9 °F 37.4 °F 71% 30.04 in 10.0 mi SSE 6.9 mph - N/A   Overcast
2:36 PM 46.4 °F 41.1 °F 35.6 °F 66% 30.03 in 10.0 mi SE 11.5 mph - N/A   Overcast
2:56 PM 46.4 °F 41.1 °F 37.4 °F 71% 30.03 in 10.0 mi SE 11.5 mph - N/A   Overcast
3:16 PM 46.4 °F 41.9 °F 37.4 °F 71% 30.03 in 10.0 mi SE 9.2 mph - N/A   Overcast
3:36 PM 46.4 °F 41.9 °F 37.4 °F 71% 30.02 in 10.0 mi ESE 9.2 mph - N/A   Overcast
3:56 PM 46.4 °F 41.1 °F 37.4 °F 71% 30.01 in 10.0 mi ESE 11.5 mph - N/A   Overcast
4:16 PM 46.4 °F 40.7 °F 37.4 °F 71% 30.01 in 10.0 mi ESE 12.7 mph - N/A   Overcast
4:36 PM 44.6 °F 38.1 °F 35.6 °F 71% 30.01 in 10.0 mi SE 13.8 mph - N/A   Overcast
4:56 PM 44.6 °F 40.2 °F 35.6 °F 71% 30.01 in 10.0 mi SSE 8.1 mph - N/A   Overcast
5:16 PM 44.6 °F 41.4 °F 35.6 °F 71% 30.00 in 10.0 mi SE 5.8 mph - N/A   Overcast
5:36 PM 44.6 °F 39.7 °F 35.6 °F 71% 30.00 in 10.0 mi East 9.2 mph - N/A   Overcast
5:56 PM 44.6 °F 40.2 °F 37.4 °F 76% 30.00 in 10.0 mi East 8.1 mph - N/A   Partly Cloudy
6:16 PM 44.6 °F 38.8 °F 37.4 °F 76% 29.99 in 10.0 mi East 11.5 mph - N/A   Partly Cloudy
6:36 PM 44.6 °F 40.2 °F 37.4 °F 76% 29.99 in 10.0 mi ESE 8.1 mph - N/A   Partly Cloudy
6:56 PM 42.8 °F 39.3 °F 37.4 °F 81% 29.99 in 10.0 mi SSE 5.8 mph - N/A   Clear
7:16 PM 42.8 °F 38.0 °F 37.4 °F 81% 29.98 in 10.0 mi ESE 8.1 mph - N/A   Clear
7:36 PM 42.8 °F 38.6 °F 37.4 °F 81% 29.97 in 10.0 mi SSE 6.9 mph - N/A   Clear
7:56 PM 41.0 °F 37.1 °F 37.4 °F 87% 29.97 in 10.0 mi ESE 5.8 mph - N/A   Scattered Clouds
8:16 PM 42.8 °F 40.1 °F 37.4 °F 81% 29.96 in 10.0 mi East 4.6 mph - N/A   Scattered Clouds
8:36 PM 42.8 °F 38.0 °F 37.4 °F 81% 29.95 in 10.0 mi East 8.1 mph - N/A   Scattered Clouds
8:56 PM 42.8 °F 36.6 °F 37.4 °F 81% 29.93 in 10.0 mi East 11.5 mph - N/A   Overcast
9:16 PM 42.8 °F 37.5 °F 37.4 °F 81% 29.93 in 10.0 mi East 9.2 mph - N/A   Overcast
9:36 PM 42.8 °F 37.5 °F 37.4 °F 81% 29.93 in 10.0 mi ENE 9.2 mph - N/A   Overcast
9:56 PM 44.6 °F 39.2 °F 35.6 °F 71% 29.92 in 10.0 mi ENE 10.4 mph - N/A   Overcast
10:16 PM 44.6 °F 40.2 °F 35.6 °F 71% 29.91 in 10.0 mi East 8.1 mph - N/A   Overcast
10:36 PM 42.8 °F 37.5 °F 35.6 °F 76% 29.90 in 10.0 mi ENE 9.2 mph - N/A   Overcast
10:56 PM 42.8 °F 40.1 °F 35.6 °F 76% 29.90 in 10.0 mi East 4.6 mph - N/A   Overcast
11:16 PM 44.6 °F 40.7 °F 33.8 °F 66% 29.88 in 10.0 mi ESE 6.9 mph - N/A   Overcast
11:36 PM 42.8 °F 38.6 °F 33.8 °F 70% 29.87 in 10.0 mi SE 6.9 mph - N/A   Mostly Cloudy
11:56 PM 41.0 °F 35.2 °F 33.8 °F 76% 29.85 in 10.0 mi SSE 9.2 mph - N/A   Scattered Clouds